createdAt,value
2022-11-15T00:01:35.221Z,91.47
2022-11-15T00:04:20.706Z,91.54
2022-11-15T00:07:06.172Z,91.31
2022-11-15T00:09:51.692Z,91.46
2022-11-15T00:12:37.265Z,91.68
2022-11-15T00:15:23.849Z,92.11
2022-11-15T00:18:15.799Z,92.25
2022-11-15T00:21:07.755Z,92.23
2022-11-15T00:23:53.379Z,92.54
2022-11-15T00:26:38.822Z,92.09
2022-11-15T00:29:24.427Z,91.89
2022-11-15T00:32:09.915Z,91.68
2022-11-15T00:34:55.631Z,91.65
2022-11-15T00:37:41.113Z,91.12
2022-11-15T00:40:26.884Z,90.89
2022-11-15T00:43:12.432Z,91.40
2022-11-15T00:45:58.219Z,91.43
2022-11-15T00:48:43.570Z,91.76
2022-11-15T00:51:29.849Z,91.25
2022-11-15T00:54:15.260Z,91.70
2022-11-15T00:57:00.795Z,91.74
2022-11-15T00:59:46.293Z,92.05
2022-11-15T01:02:31.718Z,91.87
2022-11-15T01:05:17.560Z,91.73
2022-11-15T01:08:03.092Z,91.88
2022-11-15T01:10:48.569Z,91.61
2022-11-15T01:13:35.940Z,90.90
2022-11-15T01:16:21.449Z,91.95
2022-11-15T01:19:07.326Z,91.57
2022-11-15T01:21:53.156Z,92.05
2022-11-15T01:24:38.927Z,91.81
2022-11-15T01:27:24.828Z,91.56
2022-11-15T01:30:10.509Z,92.05
2022-11-15T01:32:56.281Z,92.44
2022-11-15T01:35:41.717Z,92.51
2022-11-15T01:38:27.385Z,93.00
2022-11-15T01:41:25.306Z,93.23
2022-11-15T01:44:49.006Z,93.64
2022-11-15T01:47:37.568Z,93.22
2022-11-15T01:50:29.819Z,92.83
2022-11-15T01:53:15.611Z,92.38
2022-11-15T01:56:05.492Z,92.23
2022-11-15T01:58:52.701Z,92.45
2022-11-15T02:01:39.510Z,92.95
2022-11-15T02:04:30.572Z,94.79
2022-11-15T02:07:19.507Z,97.47
2022-11-15T02:10:11.395Z,99.08
2022-11-15T02:12:58.028Z,100.00
2022-11-15T02:16:02.961Z,100.00
2022-11-15T02:19:24.550Z,100.00
2022-11-15T02:22:58.149Z,100.00
2022-11-15T02:26:13.105Z,100.00
2022-11-15T02:29:10.070Z,100.00
2022-11-15T02:32:10.645Z,100.00
2022-11-15T02:35:26.703Z,100.00
2022-11-15T02:38:44.018Z,100.00
2022-11-15T02:41:41.173Z,99.54
2022-11-15T02:44:33.973Z,98.31
2022-11-15T02:47:22.376Z,98.53
2022-11-15T02:50:14.042Z,98.29
2022-11-15T02:52:59.753Z,97.54
2022-11-15T02:55:49.205Z,96.95
2022-11-15T02:59:21.203Z,96.46
2022-11-15T03:02:20.180Z,96.20
2022-11-15T03:06:17.298Z,96.29
2022-11-15T03:09:30.131Z,96.86
2022-11-15T03:12:34.986Z,97.52
2022-11-15T03:15:26.700Z,97.20
2022-11-15T03:18:22.607Z,96.50
2022-11-15T03:21:13.202Z,96.17
2022-11-15T03:24:02.634Z,96.67
2022-11-15T03:26:50.621Z,96.19
2022-11-15T03:29:42.945Z,96.38
2022-11-15T03:32:36.053Z,96.00
2022-11-15T03:35:28.202Z,95.97
2022-11-15T03:38:26.041Z,95.96
2022-11-15T03:41:25.209Z,95.85
2022-11-15T03:45:12.295Z,95.76
2022-11-15T03:48:10.559Z,95.65
2022-11-15T03:50:56.763Z,95.45
2022-11-15T03:53:42.619Z,95.48
2022-11-15T03:56:28.150Z,95.83
2022-11-15T03:59:13.609Z,96.48
2022-11-15T04:01:59.280Z,97.02
2022-11-15T04:04:44.551Z,97.21
2022-11-15T04:07:30.531Z,97.28
2022-11-15T04:10:16.972Z,97.91
2022-11-15T04:13:03.802Z,98.51
2022-11-15T04:15:49.451Z,99.02
2022-11-15T04:18:35.398Z,99.84
2022-11-15T04:21:39.628Z,99.78
2022-11-15T04:24:25.236Z,100.00
2022-11-15T04:27:11.365Z,100.00
2022-11-15T04:29:58.837Z,100.00
2022-11-15T04:32:44.731Z,100.00
2022-11-15T04:35:30.170Z,100.00
2022-11-15T04:38:15.988Z,100.00
2022-11-15T04:41:02.127Z,99.37
2022-11-15T04:43:48.049Z,99.39
2022-11-15T04:46:33.844Z,100.00
2022-11-15T04:49:19.288Z,100.00
2022-11-15T04:52:05.686Z,100.00
2022-11-15T04:54:51.267Z,100.00
2022-11-15T04:57:37.056Z,100.00
2022-11-15T05:00:22.535Z,100.00
2022-11-15T05:03:26.771Z,100.00
2022-11-15T05:06:12.426Z,100.00
2022-11-15T05:08:58.684Z,100.00
2022-11-15T05:11:44.671Z,100.00
2022-11-15T05:14:30.654Z,100.00
2022-11-15T05:17:16.308Z,100.00
2022-11-15T05:20:01.857Z,100.00
2022-11-15T05:22:47.502Z,100.00
2022-11-15T05:25:33.114Z,100.00
2022-11-15T05:28:18.715Z,100.00
2022-11-15T05:31:13.360Z,100.00
2022-11-15T05:34:01.298Z,100.00
2022-11-15T05:36:47.395Z,100.00
2022-11-15T05:39:33.010Z,100.00
2022-11-15T05:42:18.561Z,100.00
2022-11-15T05:45:07.445Z,100.00
2022-11-15T05:47:55.953Z,100.00
2022-11-15T05:50:46.329Z,100.00
2022-11-15T05:53:32.988Z,100.00
2022-11-15T05:56:18.763Z,100.00
2022-11-15T05:59:05.385Z,100.00
2022-11-15T06:01:51.344Z,100.00
2022-11-15T06:04:37.091Z,100.00
2022-11-15T06:07:22.666Z,100.00
2022-11-15T06:10:09.787Z,100.00
2022-11-15T06:13:03.800Z,100.00
2022-11-15T06:15:49.369Z,100.00
2022-11-15T06:18:35.699Z,100.00
2022-11-15T06:21:21.481Z,100.00
2022-11-15T06:24:07.836Z,100.00
2022-11-15T06:26:53.684Z,100.00
2022-11-15T06:29:39.935Z,100.00
2022-11-15T06:32:25.785Z,100.00
2022-11-15T06:35:11.569Z,100.00
2022-11-15T06:38:02.663Z,100.00
2022-11-15T06:40:48.146Z,100.00
2022-11-15T06:43:34.227Z,100.00
2022-11-15T06:46:19.825Z,100.00
2022-11-15T06:49:09.541Z,100.00
2022-11-15T06:51:55.536Z,100.00
2022-11-15T06:54:41.342Z,100.00
2022-11-15T06:57:26.604Z,100.00
2022-11-15T07:00:13.412Z,100.00
2022-11-15T07:03:01.381Z,100.00
2022-11-15T07:06:01.415Z,100.00
2022-11-15T07:08:51.107Z,100.00
2022-11-15T07:11:36.802Z,100.00
2022-11-15T07:14:22.527Z,100.00
2022-11-15T07:17:08.299Z,100.00
2022-11-15T07:19:53.897Z,100.00
2022-11-15T07:22:40.087Z,100.00
2022-11-15T07:25:26.338Z,100.00
2022-11-15T07:28:12.521Z,100.00
2022-11-15T07:30:58.681Z,100.00
2022-11-15T07:33:46.451Z,100.00
2022-11-15T07:36:32.929Z,100.00
2022-11-15T07:39:18.500Z,100.00
2022-11-15T07:42:22.711Z,100.00
2022-11-15T07:45:08.962Z,100.00
2022-11-15T07:47:55.013Z,100.00
2022-11-15T07:50:44.256Z,100.00
2022-11-15T07:53:30.232Z,100.00
2022-11-15T07:56:16.321Z,100.00
2022-11-15T07:59:02.253Z,100.00
2022-11-15T08:01:48.062Z,100.00
2022-11-15T08:04:33.823Z,100.00
2022-11-15T08:07:19.703Z,100.00
2022-11-15T08:10:08.317Z,100.00
2022-11-15T08:13:09.584Z,100.00
2022-11-15T08:16:06.631Z,100.00
2022-11-15T08:18:52.553Z,100.00
2022-11-15T08:21:38.566Z,100.00
2022-11-15T08:24:24.070Z,100.00
2022-11-15T08:27:16.086Z,100.00
2022-11-15T08:30:01.867Z,100.00
2022-11-15T08:32:47.667Z,100.00
2022-11-15T08:35:33.133Z,100.00
2022-11-15T08:38:18.558Z,100.00
2022-11-15T08:41:06.199Z,100.00
2022-11-15T08:43:51.574Z,100.00
2022-11-15T08:46:37.013Z,100.00
2022-11-15T08:49:22.569Z,100.00
2022-11-15T08:52:09.624Z,100.00
2022-11-15T08:54:55.255Z,100.00
2022-11-15T08:57:41.049Z,100.00
2022-11-15T09:00:26.556Z,100.00
2022-11-15T09:03:11.952Z,100.00
2022-11-15T09:05:59.112Z,100.00
2022-11-15T09:08:48.630Z,100.00
2022-11-15T09:11:34.466Z,100.00
2022-11-15T09:14:20.053Z,100.00
2022-11-15T09:17:10.243Z,100.00
2022-11-15T09:19:56.482Z,100.00
2022-11-15T09:22:41.875Z,100.00
2022-11-15T09:25:27.981Z,100.00
2022-11-15T09:28:13.532Z,100.00
2022-11-15T09:31:01.056Z,100.00
2022-11-15T09:33:47.446Z,98.97
2022-11-15T09:36:33.388Z,97.35
2022-11-15T09:39:19.022Z,96.57
2022-11-15T09:42:45.477Z,97.50
2022-11-15T09:46:06.757Z,96.97
2022-11-15T09:48:58.808Z,97.84
2022-11-15T09:51:51.365Z,97.28
2022-11-15T09:54:53.295Z,96.77
2022-11-15T09:57:33.791Z,97.45
2022-11-15T10:00:47.085Z,97.50
2022-11-15T10:03:24.728Z,98.07
2022-11-15T10:05:55.453Z,96.55
2022-11-15T10:08:53.257Z,96.68
2022-11-15T10:11:39.740Z,95.17
2022-11-15T10:14:17.493Z,94.72
2022-11-15T10:17:24.222Z,94.32
2022-11-15T10:20:06.239Z,95.07
2022-11-15T10:22:51.252Z,93.81
2022-11-15T10:25:32.217Z,92.58
2022-11-15T10:28:21.533Z,92.29
2022-11-15T10:30:51.259Z,92.19
2022-11-15T10:33:39.915Z,92.28
2022-11-15T10:36:29.842Z,90.93
2022-11-15T10:38:58.528Z,89.65
2022-11-15T10:41:36.482Z,90.14
2022-11-15T10:44:43.512Z,88.51
2022-11-15T10:47:28.985Z,87.90
2022-11-15T10:50:05.711Z,86.00
2022-11-15T10:52:35.674Z,83.91
2022-11-15T10:55:22.950Z,81.57
2022-11-15T10:58:30.647Z,79.27
2022-11-15T11:01:17.601Z,80.00
2022-11-15T11:03:58.315Z,79.75
2022-11-15T11:06:25.634Z,76.27
2022-11-15T11:09:04.303Z,72.73
2022-11-15T11:11:51.587Z,73.01
2022-11-15T11:14:28.547Z,73.62
2022-11-15T11:17:19.481Z,73.96
2022-11-15T11:19:57.042Z,73.33
2022-11-15T11:22:52.566Z,71.49
2022-11-15T11:25:29.936Z,68.12
2022-11-15T11:28:31.985Z,67.18
2022-11-15T11:38:10.235Z,66.54
2022-11-15T11:41:04.189Z,66.52
2022-11-15T11:44:06.892Z,64.72
2022-11-15T11:47:00.475Z,63.89
2022-11-15T11:52:50.707Z,62.59
2022-11-15T11:55:30.327Z,59.25
2022-11-15T12:01:45.363Z,55.85
2022-11-15T12:04:41.877Z,56.09
2022-11-15T12:07:25.686Z,56.49
2022-11-15T12:10:00.602Z,56.41
2022-11-15T12:12:54.385Z,56.99
2022-11-15T12:15:27.278Z,54.94
2022-11-15T12:17:56.795Z,53.82
2022-11-15T12:20:31.436Z,54.78
2022-11-15T12:23:05.083Z,54.07
2022-11-15T12:26:27.757Z,54.10
2022-11-15T12:29:25.070Z,55.05
2022-11-15T12:31:57.657Z,54.40
2022-11-15T12:34:38.215Z,54.63
2022-11-15T12:37:36.104Z,53.08
2022-11-15T12:40:32.797Z,53.58
2022-11-15T12:43:38.409Z,53.97
2022-11-15T12:46:12.637Z,54.72
2022-11-15T12:49:09.231Z,54.51
2022-11-15T12:52:07.232Z,55.48
2022-11-15T12:55:04.519Z,53.94
2022-11-15T12:57:37.402Z,53.98
2022-11-15T13:00:52.133Z,54.60
2022-11-15T13:03:27.885Z,54.90
2022-11-15T13:05:59.389Z,54.48
2022-11-15T13:08:45.068Z,54.78
2022-11-15T13:11:44.458Z,54.56
2022-11-15T13:14:50.248Z,55.19
2022-11-15T13:18:02.610Z,53.77
2022-11-15T13:20:33.753Z,52.58
2022-11-15T13:23:05.253Z,52.53
2022-11-15T13:25:58.564Z,52.76
2022-11-15T13:28:37.915Z,53.17
2022-11-15T13:31:43.383Z,53.09
2022-11-15T13:34:54.985Z,53.56
2022-11-15T13:37:32.231Z,53.52
2022-11-15T13:40:21.123Z,54.35
2022-11-15T13:42:48.366Z,53.69
2022-11-15T13:45:18.885Z,52.75
2022-11-15T13:47:46.044Z,53.02
2022-11-15T13:50:14.673Z,52.64
2022-11-15T13:52:46.914Z,51.06
2022-11-15T13:55:22.847Z,51.02
2022-11-15T13:57:54.095Z,51.77
2022-11-15T14:00:47.624Z,50.75
2022-11-15T14:03:34.215Z,49.36
2022-11-15T14:06:16.435Z,49.99
2022-11-15T14:09:31.347Z,51.24
2022-11-15T14:11:58.815Z,50.31
2022-11-15T14:14:28.219Z,48.55
2022-11-15T14:17:00.486Z,48.90
2022-11-15T14:19:39.059Z,49.07
2022-11-15T14:22:32.155Z,49.53
2022-11-15T14:25:23.630Z,51.32
2022-11-15T14:28:17.399Z,52.77
2022-11-15T14:30:51.346Z,53.50
2022-11-15T14:33:32.483Z,55.39
2022-11-15T14:36:19.885Z,57.30
2022-11-15T14:38:47.789Z,59.55
2022-11-15T14:41:27.439Z,61.44
2022-11-15T14:43:54.673Z,62.21
2022-11-15T14:46:21.669Z,63.04
2022-11-15T14:48:48.830Z,64.08
2022-11-15T14:51:18.526Z,65.25
2022-11-15T14:53:46.898Z,66.76
2022-11-15T14:56:15.181Z,67.37
2022-11-15T14:58:42.345Z,67.62
2022-11-15T15:01:19.256Z,68.71
2022-11-15T15:03:46.789Z,69.52
2022-11-15T15:06:17.982Z,70.18
2022-11-15T15:08:47.239Z,71.09
2022-11-15T15:11:22.919Z,72.25
2022-11-15T15:13:50.093Z,72.64
2022-11-15T15:16:17.203Z,73.40
2022-11-15T15:18:44.759Z,73.32
2022-11-15T15:21:26.192Z,73.84
2022-11-15T15:23:55.186Z,74.42
2022-11-15T15:26:24.006Z,74.90
2022-11-15T15:28:53.115Z,75.87
2022-11-15T15:31:20.348Z,75.55
2022-11-15T15:33:47.608Z,75.89
2022-11-15T15:36:18.253Z,76.23
2022-11-15T15:38:47.945Z,77.04
2022-11-15T15:41:16.906Z,77.51
2022-11-15T15:43:44.385Z,77.66
2022-11-15T15:46:21.189Z,77.94
2022-11-15T15:48:48.480Z,77.85
2022-11-15T15:51:20.160Z,78.05
2022-11-15T15:53:49.499Z,78.31
2022-11-15T15:56:16.623Z,78.23
2022-11-15T15:58:43.695Z,77.70
2022-11-15T16:01:10.906Z,77.82
2022-11-15T16:03:38.290Z,77.06
2022-11-15T16:06:06.370Z,77.32
2022-11-15T16:08:47.439Z,78.57
2022-11-15T16:11:20.542Z,79.31
2022-11-15T16:13:47.453Z,80.45
2022-11-15T16:16:15.115Z,80.82
2022-11-15T16:18:42.918Z,80.04
2022-11-15T16:21:10.074Z,79.62
2022-11-15T16:23:37.188Z,80.62
2022-11-15T16:26:19.177Z,81.35
2022-11-15T16:28:46.154Z,81.71
2022-11-15T16:31:13.849Z,81.84
2022-11-15T16:33:41.412Z,83.00
2022-11-15T16:36:30.262Z,83.38
2022-11-15T16:38:58.807Z,83.51
2022-11-15T16:41:26.531Z,83.91
2022-11-15T16:43:53.757Z,84.13
2022-11-15T16:46:30.247Z,84.69
2022-11-15T16:48:57.825Z,84.77
2022-11-15T16:51:25.209Z,84.69
2022-11-15T16:53:52.387Z,84.22
2022-11-15T16:56:30.599Z,84.59
2022-11-15T16:58:59.250Z,84.21
2022-11-15T17:01:29.215Z,84.51
2022-11-15T17:03:56.500Z,84.37
2022-11-15T17:06:24.944Z,84.34
2022-11-15T17:08:52.341Z,84.35
2022-11-15T17:11:22.020Z,84.51
2022-11-15T17:13:49.888Z,84.56
2022-11-15T17:16:18.547Z,83.99
2022-11-15T17:18:45.940Z,83.17
2022-11-15T17:21:18.139Z,83.16
2022-11-15T17:23:46.143Z,82.96
2022-11-15T17:26:29.501Z,83.76
2022-11-15T17:28:59.411Z,83.92
2022-11-15T17:31:26.584Z,84.10
2022-11-15T17:33:53.705Z,84.79
2022-11-15T17:36:21.235Z,85.08
2022-11-15T17:38:56.568Z,85.70
2022-11-15T17:41:26.627Z,85.53
2022-11-15T17:43:53.704Z,85.43
2022-11-15T17:46:21.693Z,85.19
2022-11-15T17:48:49.454Z,84.91
2022-11-15T17:51:18.160Z,85.16
2022-11-15T17:53:46.994Z,85.07
2022-11-15T17:56:16.645Z,84.58
2022-11-15T17:58:52.827Z,84.20
2022-11-15T18:01:23.287Z,84.42
2022-11-15T18:03:50.768Z,84.91
2022-11-15T18:06:19.376Z,84.97
2022-11-15T18:08:48.155Z,84.84
2022-11-15T18:11:23.316Z,84.85
2022-11-15T18:13:57.177Z,85.08
2022-11-15T18:16:26.571Z,84.98
2022-11-15T18:18:55.278Z,84.93
2022-11-15T18:21:24.500Z,84.96
2022-11-15T18:23:57.002Z,84.91
2022-11-15T18:26:27.890Z,84.91
2022-11-15T18:28:57.568Z,85.00
2022-11-15T18:31:29.463Z,85.28
2022-11-15T18:33:59.795Z,85.14
2022-11-15T18:36:30.696Z,85.59
2022-11-15T18:39:00.794Z,86.19
2022-11-15T18:41:31.112Z,86.38
2022-11-15T18:44:00.075Z,86.60
2022-11-15T18:46:31.074Z,86.84
2022-11-15T18:49:01.068Z,86.09
2022-11-15T18:51:30.982Z,86.02
2022-11-15T18:54:00.673Z,86.42
2022-11-15T18:56:29.669Z,86.16
2022-11-15T18:58:59.380Z,86.56
2022-11-15T19:01:34.077Z,86.51
2022-11-15T19:04:06.010Z,86.58
2022-11-15T19:06:33.447Z,86.56
2022-11-15T19:09:00.815Z,86.92
2022-11-15T19:11:32.824Z,87.37
2022-11-15T19:14:03.338Z,87.17
2022-11-15T19:16:33.542Z,87.08
2022-11-15T19:19:03.645Z,87.10
2022-11-15T19:21:33.909Z,86.87
2022-11-15T19:24:01.788Z,87.04
2022-11-15T19:26:29.763Z,87.11
2022-11-15T19:29:01.830Z,87.04
2022-11-15T19:31:31.758Z,87.77
2022-11-15T19:34:00.605Z,87.71
2022-11-15T19:36:32.592Z,87.76
2022-11-15T19:39:05.289Z,87.70
2022-11-15T19:41:32.454Z,87.39
2022-11-15T19:43:59.621Z,87.14
2022-11-15T19:46:27.107Z,86.93
2022-11-15T19:48:54.712Z,87.08
2022-11-15T19:51:27.077Z,86.78
2022-11-15T19:53:56.728Z,85.88
2022-11-15T19:56:24.149Z,86.13
2022-11-15T19:58:53.059Z,83.88
2022-11-15T20:01:29.018Z,85.03
2022-11-15T20:03:59.074Z,87.72
2022-11-15T20:06:34.509Z,89.15
2022-11-15T20:09:01.591Z,89.85
2022-11-15T20:11:28.720Z,90.57
2022-11-15T20:14:00.797Z,90.04
2022-11-15T20:16:28.148Z,91.19
2022-11-15T20:18:55.129Z,91.89
2022-11-15T20:21:22.294Z,93.64
2022-11-15T20:23:51.175Z,95.23
2022-11-15T20:26:20.090Z,96.75
2022-11-15T20:28:48.375Z,97.35
2022-11-15T20:31:16.609Z,98.06
2022-11-15T20:33:43.819Z,98.37
2022-11-15T20:36:13.540Z,98.48
2022-11-15T20:38:40.908Z,98.31
2022-11-15T20:41:08.233Z,98.34
2022-11-15T20:43:35.367Z,98.41
2022-11-15T20:46:02.270Z,98.36
2022-11-15T20:48:29.420Z,98.62
2022-11-15T20:51:25.973Z,97.76
2022-11-15T20:53:53.071Z,98.33
2022-11-15T20:56:22.003Z,97.84
2022-11-15T20:58:50.796Z,98.00
2022-11-15T21:01:23.804Z,98.13
2022-11-15T21:03:57.646Z,98.06
2022-11-15T21:06:26.845Z,97.96
2022-11-15T21:09:13.285Z,97.45
2022-11-15T21:11:59.773Z,96.85
2022-11-15T21:14:27.020Z,96.64
2022-11-15T21:16:54.081Z,96.46
2022-11-15T21:19:27.287Z,96.71
2022-11-15T21:21:58.531Z,96.42
2022-11-15T21:24:25.620Z,96.23
2022-11-15T21:26:53.373Z,95.83
2022-11-15T21:29:20.591Z,95.58
2022-11-15T21:31:48.977Z,95.09
2022-11-15T21:34:17.487Z,94.41
2022-11-15T21:36:44.503Z,94.03
2022-11-15T21:39:11.861Z,94.55
2022-11-15T21:41:38.995Z,94.16
2022-11-15T21:44:06.083Z,93.48
2022-11-15T21:46:33.593Z,92.91
2022-11-15T21:49:00.700Z,92.76
2022-11-15T21:51:27.898Z,92.88
2022-11-15T21:53:56.379Z,92.93
2022-11-15T21:56:24.170Z,92.58
2022-11-15T21:58:51.335Z,92.59
2022-11-15T22:01:37.468Z,91.69
2022-11-15T22:04:06.600Z,92.26
2022-11-15T22:06:34.594Z,93.09
2022-11-15T22:09:02.315Z,93.70
2022-11-15T22:11:29.872Z,93.42
2022-11-15T22:13:57.073Z,93.85
2022-11-15T22:16:24.372Z,94.20
2022-11-15T22:18:51.512Z,93.73
2022-11-15T22:21:19.285Z,94.07
2022-11-15T22:23:46.604Z,94.21
2022-11-15T22:26:19.396Z,93.79
2022-11-15T22:28:49.186Z,93.84
2022-11-15T22:31:16.235Z,94.00
2022-11-15T22:33:43.313Z,94.44
2022-11-15T22:36:12.067Z,94.70
2022-11-15T22:38:39.526Z,94.47
2022-11-15T22:41:06.870Z,94.75
2022-11-15T22:43:34.472Z,94.29
2022-11-15T22:46:02.877Z,93.59
2022-11-15T22:48:35.745Z,93.57
2022-11-15T22:51:04.075Z,93.62
2022-11-15T22:53:31.336Z,93.35
2022-11-15T22:56:01.006Z,93.06
2022-11-15T22:58:30.425Z,92.34
2022-11-15T23:01:02.695Z,92.89
2022-11-15T23:03:31.522Z,92.92
2022-11-15T23:06:06.472Z,92.89
2022-11-15T23:08:33.859Z,93.15
2022-11-15T23:11:20.812Z,93.62
2022-11-15T23:13:51.757Z,94.03
2022-11-15T23:16:23.662Z,93.65
2022-11-15T23:18:56.576Z,93.50
2022-11-15T23:21:53.920Z,92.99
2022-11-15T23:24:21.683Z,93.43
2022-11-15T23:26:51.349Z,93.20
2022-11-15T23:29:20.625Z,93.49
2022-11-15T23:32:06.294Z,93.98
2022-11-15T23:34:36.449Z,93.58
2022-11-15T23:37:05.173Z,93.71
2022-11-15T23:39:32.629Z,94.07
2022-11-15T23:42:02.104Z,93.76
2022-11-15T23:44:33.157Z,93.60
2022-11-15T23:47:00.174Z,93.72
2022-11-15T23:49:27.412Z,93.66
2022-11-15T23:51:54.527Z,93.30
2022-11-15T23:54:21.599Z,92.72
2022-11-15T23:56:48.637Z,93.00
2022-11-15T23:59:15.855Z,93.44
